Dodge, Texas
Current Conditions -  °F | °C
As of 5:53 AM on Monday 26 Jan 2015 (Local Time) from KUTS Reporting Station
Clear Clear  
Wind Chill: 42°   Ceiling: Unl
Heat Index: 42°   Visibility: 10mi
Dew Point: 28°   Wind: 0mph
Humidity: 58%   Direction: NA
Pressure: 30.19"   Gusts: NA
Location:  30.75°N, 95.4°W
Report Text: KUTS 261153Z AUTO 00000KT 10SM CLR 06/M02 A3019 RMK AO2 SLP220 T00561022 10128 20056 53002
Loading
Personal Weather Stations






























Interactive Weather Map New forecast layout! Learn more

10-Day Weather Forecast

Advertisements
Track Severe Weather on mobile